Youngstown, OH (44513)

4:32 PM EDT on August 03, 2015 (GMT -0400)
Boardman | | Change Station
CLOSE
Current Station
Personal Weather Station
Location: Youngstown, OH
Elevation: 1050 ft
Nearby Weather Stations

Elev 1050 ft 41.04 °N, 80.67 °W | Updated 9 seconds ago

Mostly Cloudy
Mostly Cloudy
81.1 °F
Feels Like 83 °F
N
3.0
Wind Variable Wind from NNW
Gusts 8.0 mph

Today
High -- | Low -- °F
--% Chance of Precip.
Yesterday
High -- | Low -- °F
Precip. -- in
6:20 AM 8:36 PM
Waning Gibbous, 84% visible
Pressure 29.83 in
Visibility -9999.0 miles
Clouds Clear
Heat Index 83 °F
Dew Point 64 °F
Humidity 57%
Rainfall 0.00 in
Snow Depth Not available.
UV 8 out of 12
Pollen 4.90 out of 12
Air Quality Not available.
Flu Activity Not available.
METAR KUCP 031956Z AUTO 27008KT CLR 29/17 A2981 RMK AO2 T02880172 SLP101 $

More Conditions Fewer Conditions

Pressure 29.83 in
Visibility -9999.0 miles
Clouds Clear
Heat Index 83 °F
Dew Point 64 °F
Humidity 57%
Rainfall 0.00 in
Snow Depth Not available.
UV 8 out of 12
Pollen 4.90 out of 12
Air Quality Not available.
Flu Activity Not available.
METAR KUCP 031956Z AUTO 27008KT CLR 29/17 A2981 RMK AO2 T02880172 SLP101 $

More Conditions Fewer Conditions

10-Day Weather Forecast

×

Almanac

Astronomy

Aug. 03, 2015 Rise Set
Actual Time
Civil Twilight
Nautical Twilight
Astronomical Twilight
Moon
Length of Visible Light
Length of Day
Tomorrow will be .
, % of the Moon is Illuminated

Today's Extremes

State Highs State Lows

Community

WunderPhotos

Upload Photos

1,843,743 photos uploaded!

WunderBlogs® & News

Nearby

Air Quality

  Air Quality AQ Index Pollutant
Not available.

Snow Depth

Station Depth Elevation

Earthquake Activity

City Distance Mag. Time & Date
Minimum magnitude displayed is 2.5.

Coastal Water Temperatures

Place Temperature

Stations

Nearby Weather Stations

Station Location Temp. Windchill Dew Point Humidity Wind Precip. Elev Updated Type